Time;durP1;ratioP1;P1;durP2;ratioP2;P2;SDS_P1;SDS_P2;PMS_P1;PMS_P2;Temp;Humidity;BMP_temperature;BMP_pressure;BME280_temperature;BME280_humidity;BME280_pressure;Samples;Min_cycle;Max_cycle;Signal;HPM_P1;HPM_P2
2022/07/06 00:01:38;;;;;;;4.03;3.70;;;12.50;99.90;;;;;;4875417;29;20219;-61
2022/07/06 00:04:07;;;;;;;4.63;4.17;;;12.40;99.90;;;;;;4872794;29;20214;-61
2022/07/06 00:06:36;;;;;;;7.10;4.23;;;12.30;99.90;;;;;;4871242;29;20262;-61
2022/07/06 00:09:06;;;;;;;8.83;4.33;;;12.30;99.90;;;;;;4874228;29;20208;-61
2022/07/06 00:11:35;;;;;;;5.30;4.60;;;12.30;99.90;;;;;;4874610;29;20203;-61
2022/07/06 00:14:06;;;;;;;5.00;4.70;;;12.30;99.90;;;;;;4874161;29;20312;-62
2022/07/06 00:16:34;;;;;;;5.17;4.67;;;12.20;99.90;;;;;;4876438;29;20293;-62
2022/07/06 00:19:03;;;;;;;5.27;4.30;;;12.20;99.90;;;;;;4873093;29;20216;-62
2022/07/06 00:21:31;;;;;;;9.20;4.40;;;12.20;99.90;;;;;;4873293;29;20421;-62
2022/07/06 00:24:00;;;;;;;4.37;4.07;;;12.20;99.90;;;;;;4874778;29;20207;-62
2022/07/06 00:26:29;;;;;;;4.53;4.17;;;12.20;99.90;;;;;;4871826;29;20211;-61
2022/07/06 00:28:57;;;;;;;4.50;4.20;;;12.10;99.90;;;;;;4874141;29;20644;-62
2022/07/06 00:31:27;;;;;;;8.37;4.27;;;12.10;99.90;;;;;;4870924;29;20211;-61
2022/07/06 00:33:56;;;;;;;8.93;4.63;;;12.10;99.90;;;;;;4875423;29;20231;-61
2022/07/06 00:36:24;;;;;;;6.90;4.57;;;12.00;99.90;;;;;;4873109;29;20211;-62
2022/07/06 00:38:53;;;;;;;7.87;4.80;;;12.00;99.90;;;;;;4872744;29;20683;-61
2022/07/06 00:41:21;;;;;;;5.00;4.60;;;12.00;99.90;;;;;;4868842;29;20227;-61
2022/07/06 00:43:51;;;;;;;6.73;4.43;;;12.00;99.90;;;;;;4873069;29;20215;-61
2022/07/06 00:46:22;;;;;;;4.90;4.47;;;11.90;99.90;;;;;;4870096;29;20235;-61
2022/07/06 00:48:52;;;;;;;4.83;4.33;;;11.90;99.90;;;;;;4871642;29;20199;-61
2022/07/06 00:51:22;;;;;;;4.67;4.27;;;12.00;99.90;;;;;;4872735;29;20219;-61
2022/07/06 00:53:51;;;;;;;5.27;4.77;;;11.90;99.90;;;;;;4880249;29;20290;-61
2022/07/06 00:56:20;;;;;;;5.67;5.17;;;12.00;99.90;;;;;;4874155;29;20203;-61
2022/07/06 00:58:49;;;;;;;7.77;5.60;;;12.10;99.90;;;;;;4874486;29;20238;-61
2022/07/06 01:01:17;;;;;;;9.07;5.80;;;12.20;99.90;;;;;;4873505;29;20255;-61
2022/07/06 01:03:45;;;;;;;5.73;5.23;;;12.30;99.90;;;;;;4873715;29;20211;-61
2022/07/06 01:06:16;;;;;;;11.97;6.13;;;12.40;99.90;;;;;;4870508;29;20231;-61
2022/07/06 01:08:45;;;;;;;5.63;4.77;;;12.40;99.90;;;;;;4871513;29;20195;-62
2022/07/06 01:11:13;;;;;;;5.83;5.20;;;12.50;99.90;;;;;;4870627;29;20660;-62
2022/07/06 01:13:43;;;;;;;6.23;4.97;;;12.50;99.90;;;;;;4871053;29;20211;-62
2022/07/06 01:16:12;;;;;;;5.90;5.27;;;12.50;99.90;;;;;;4876402;29;20207;-61
2022/07/06 01:18:42;;;;;;;5.57;5.00;;;12.50;99.90;;;;;;4873293;29;20202;-62
2022/07/06 01:21:13;;;;;;;5.77;4.63;;;12.50;99.90;;;;;;4873406;29;20299;-61
2022/07/06 01:23:43;;;;;;;5.67;5.10;;;12.50;99.90;;;;;;4873150;29;20289;-62
2022/07/06 01:26:13;;;;;;;5.33;4.77;;;12.60;99.90;;;;;;4871493;29;20242;-62
2022/07/06 01:28:42;;;;;;;5.47;4.97;;;12.60;99.90;;;;;;4873168;29;20686;-61
2022/07/06 01:31:18;;;;;;;5.83;5.13;;;12.60;99.90;;;;;;4872843;29;20724;-61
2022/07/06 01:33:47;;;;;;;6.37;5.23;;;12.60;99.90;;;;;;4868101;29;20203;-61
2022/07/06 01:36:17;;;;;;;8.40;5.57;;;12.60;99.90;;;;;;4873871;29;20222;-62
2022/07/06 01:38:47;;;;;;;7.33;5.53;;;12.60;99.90;;;;;;4869405;29;20203;-62
2022/07/06 01:41:16;;;;;;;6.57;5.60;;;12.50;99.90;;;;;;4866928;29;20191;-61
2022/07/06 01:43:45;;;;;;;6.20;5.60;;;12.50;99.90;;;;;;4865784;29;20238;-61
2022/07/06 01:46:14;;;;;;;5.70;5.30;;;12.50;99.90;;;;;;4872023;29;20702;-61
2022/07/06 01:48:43;;;;;;;10.33;5.70;;;12.40;99.90;;;;;;4874021;29;20207;-61
2022/07/06 01:51:13;;;;;;;6.37;5.77;;;12.30;99.90;;;;;;4885697;29;20204;-61
2022/07/06 01:53:43;;;;;;;7.37;5.53;;;12.30;99.90;;;;;;4870702;29;20205;-61
2022/07/06 01:56:12;;;;;;;7.10;6.13;;;12.20;99.90;;;;;;4869355;29;20265;-61
2022/07/06 01:58:41;;;;;;;8.47;5.90;;;12.20;99.90;;;;;;4869312;29;20199;-61
2022/07/06 02:01:10;;;;;;;7.57;5.57;;;12.20;99.90;;;;;;4873628;29;20215;-61
2022/07/06 02:03:39;;;;;;;6.37;5.77;;;12.20;99.90;;;;;;4864996;29;20676;-61
2022/07/06 02:06:08;;;;;;;10.00;6.43;;;12.10;99.90;;;;;;4870322;29;20271;-61
2022/07/06 02:08:37;;;;;;;6.13;5.50;;;12.10;99.90;;;;;;4876311;29;20218;-62
2022/07/06 02:11:08;;;;;;;6.90;6.20;;;12.10;99.90;;;;;;4870847;29;20213;-61
2022/07/06 02:13:37;;;;;;;7.87;5.73;;;12.00;99.90;;;;;;4874348;29;20281;-61
2022/07/06 02:16:06;;;;;;;7.40;5.70;;;12.00;99.90;;;;;;4869982;29;20289;-61
2022/07/06 02:18:35;;;;;;;7.60;5.80;;;12.00;99.90;;;;;;4873073;29;20210;-61
2022/07/06 02:21:05;;;;;;;7.57;5.73;;;12.00;99.90;;;;;;4873173;29;20335;-61
2022/07/06 02:23:33;;;;;;;5.83;5.33;;;12.00;99.90;;;;;;4871073;29;20598;-61
2022/07/06 02:26:03;;;;;;;8.87;5.80;;;12.00;99.90;;;;;;4872839;29;20691;-61
2022/07/06 02:28:33;;;;;;;8.07;6.10;;;11.90;99.90;;;;;;4872620;29;20587;-62
2022/07/06 02:31:01;;;;;;;8.33;6.20;;;11.90;99.90;;;;;;4873472;29;20856;-61
2022/07/06 02:33:30;;;;;;;6.50;5.90;;;11.90;99.90;;;;;;4872877;29;20210;-61
2022/07/06 02:35:58;;;;;;;6.20;5.70;;;12.00;99.90;;;;;;4870917;29;20289;-61
2022/07/06 02:38:26;;;;;;;7.20;5.97;;;12.00;99.90;;;;;;4870451;29;20295;-61
2022/07/06 02:40:55;;;;;;;7.50;6.13;;;12.00;99.90;;;;;;4875037;29;20211;-61
2022/07/06 02:43:23;;;;;;;8.73;6.20;;;12.00;99.90;;;;;;4877983;29;20226;-61
2022/07/06 02:45:53;;;;;;;7.90;6.27;;;11.90;99.90;;;;;;4873372;29;20214;-62
2022/07/06 02:48:22;;;;;;;6.43;5.93;;;11.90;99.90;;;;;;4873596;29;20211;-62
2022/07/06 02:50:51;;;;;;;8.53;6.20;;;11.80;99.90;;;;;;4872685;29;20234;-61
2022/07/06 02:53:20;;;;;;;7.63;6.17;;;11.80;99.90;;;;;;4880833;29;20203;-61
2022/07/06 02:55:49;;;;;;;7.87;6.60;;;11.70;99.90;;;;;;4876764;29;20218;-61
2022/07/06 02:58:17;;;;;;;6.77;6.17;;;11.70;99.90;;;;;;4878764;29;20229;-62
2022/07/06 03:00:46;;;;;;;6.83;6.33;;;11.70;99.90;;;;;;4876469;29;20203;-62
2022/07/06 03:03:16;;;;;;;7.03;6.43;;;11.60;99.90;;;;;;4870603;29;20223;-61
2022/07/06 03:05:46;;;;;;;9.80;6.40;;;11.50;99.90;;;;;;4872392;29;20283;-60
2022/07/06 03:08:15;;;;;;;12.83;6.77;;;11.50;99.90;;;;;;4873922;29;20202;-61
2022/07/06 03:10:43;;;;;;;9.23;6.70;;;11.50;99.90;;;;;;4851049;29;20204;-61
2022/07/06 03:13:12;;;;;;;8.77;6.33;;;11.50;99.90;;;;;;4876064;29;20202;-61
2022/07/06 03:15:40;;;;;;;6.63;6.13;;;11.50;99.90;;;;;;4879083;29;20579;-61
2022/07/06 03:18:08;;;;;;;7.40;6.23;;;11.40;99.90;;;;;;4872482;29;20691;-61
2022/07/06 03:20:38;;;;;;;8.30;6.53;;;11.30;99.90;;;;;;4873476;29;20257;-60
2022/07/06 03:23:07;;;;;;;7.70;6.63;;;11.30;99.90;;;;;;4873876;29;20215;-60
2022/07/06 03:25:35;;;;;;;13.83;7.00;;;11.30;99.90;;;;;;4872273;29;20239;-61
2022/07/06 03:28:04;;;;;;;7.87;6.93;;;11.30;99.90;;;;;;4876668;29;20255;-61
2022/07/06 03:30:32;;;;;;;13.13;7.33;;;11.20;99.90;;;;;;4878547;29;20596;-61
2022/07/06 03:33:01;;;;;;;14.33;7.73;;;11.20;99.90;;;;;;4875127;29;20285;-61
2022/07/06 03:35:29;;;;;;;9.20;6.67;;;11.20;99.90;;;;;;4878303;29;20308;-61
2022/07/06 03:37:59;;;;;;;7.63;6.93;;;11.20;99.90;;;;;;4874675;29;20218;-61
2022/07/06 03:40:28;;;;;;;14.53;6.83;;;11.20;99.90;;;;;;4872735;29;20230;-61
2022/07/06 03:42:56;;;;;;;7.67;6.87;;;11.20;99.90;;;;;;4875059;29;20226;-61
2022/07/06 03:45:24;;;;;;;7.27;6.57;;;11.20;99.90;;;;;;4873784;29;20211;-64
2022/07/06 03:47:53;;;;;;;10.07;7.27;;;11.20;99.90;;;;;;4876909;29;20297;-61
2022/07/06 03:50:22;;;;;;;12.93;7.33;;;11.20;99.90;;;;;;4875823;29;20206;-61
2022/07/06 03:52:50;;;;;;;8.10;6.70;;;11.10;99.90;;;;;;4871192;29;20207;-61
2022/07/06 03:55:20;;;;;;;9.80;6.57;;;11.20;99.90;;;;;;4876209;29;21040;-61
2022/07/06 03:57:48;;;;;;;7.33;6.63;;;11.20;99.90;;;;;;4875136;29;20204;-61
2022/07/06 04:00:17;;;;;;;8.30;7.50;;;11.20;99.90;;;;;;4873833;29;20226;-61
2022/07/06 04:03:08;;;;;;;7.63;6.80;;;11.20;99.90;;;;;;4875068;29;20242;-61
2022/07/06 04:05:37;;;;;;;20.40;7.13;;;11.20;99.90;;;;;;4861693;29;20263;-60
2022/07/06 04:08:05;;;;;;;9.90;7.00;;;11.20;99.90;;;;;;4874566;29;20238;-60
2022/07/06 04:10:35;;;;;;;12.00;6.73;;;11.20;99.90;;;;;;4873404;29;20678;-60
2022/07/06 04:13:03;;;;;;;9.87;6.80;;;11.20;99.90;;;;;;4868780;29;20323;-60
2022/07/06 04:15:31;;;;;;;12.73;7.20;;;11.20;99.90;;;;;;4874847;29;20277;-60
2022/07/06 04:18:00;;;;;;;13.07;8.13;;;11.30;99.90;;;;;;4873759;29;20205;-61
2022/07/06 04:20:28;;;;;;;8.57;7.00;;;11.30;99.90;;;;;;4871609;29;20227;-61
2022/07/06 04:22:56;;;;;;;8.37;7.20;;;11.40;99.90;;;;;;4874989;29;20692;-61
2022/07/06 04:25:25;;;;;;;12.07;6.80;;;11.40;99.90;;;;;;4875235;29;20230;-60
2022/07/06 04:27:55;;;;;;;9.40;6.90;;;11.40;99.90;;;;;;4873708;29;20203;-61
2022/07/06 04:30:23;;;;;;;9.60;6.73;;;11.50;99.90;;;;;;4876021;29;20750;-61
2022/07/06 04:32:51;;;;;;;9.57;7.13;;;11.60;99.90;;;;;;4871235;29;20298;-61
2022/07/06 04:35:20;;;;;;;7.37;6.67;;;11.60;99.90;;;;;;4875518;29;20237;-61
2022/07/06 04:37:48;;;;;;;9.70;6.83;;;11.80;99.90;;;;;;4874435;29;20271;-61
2022/07/06 04:40:17;;;;;;;8.00;6.70;;;11.80;99.90;;;;;;4859629;29;20234;-61
2022/07/06 04:42:46;;;;;;;8.37;6.37;;;11.90;99.90;;;;;;4873475;29;20206;-61
2022/07/06 04:45:16;;;;;;;13.60;6.90;;;12.00;99.90;;;;;;4871277;29;20287;-61
2022/07/06 04:47:44;;;;;;;6.93;6.20;;;12.10;99.90;;;;;;4871781;29;20214;-61
2022/07/06 04:50:13;;;;;;;10.07;7.10;;;12.20;99.90;;;;;;4871179;29;20199;-61
2022/07/06 04:52:41;;;;;;;6.83;6.00;;;12.30;99.90;;;;;;4867559;29;20195;-61
2022/07/06 04:55:10;;;;;;;8.50;6.40;;;12.30;99.90;;;;;;4872464;29;20321;-61
2022/07/06 04:57:38;;;;;;;8.23;6.37;;;12.40;99.90;;;;;;4879636;29;20231;-61
2022/07/06 05:00:07;;;;;;;11.37;7.10;;;12.40;99.90;;;;;;4870014;29;20210;-61
2022/07/06 05:02:37;;;;;;;7.53;6.40;;;12.50;99.90;;;;;;4871099;29;20195;-61
2022/07/06 05:05:06;;;;;;;6.83;6.13;;;12.60;99.90;;;;;;4868140;29;20228;-61
2022/07/06 05:07:39;;;;;;;7.57;5.97;;;12.60;99.90;;;;;;4873632;29;21747;-61
2022/07/06 05:10:09;;;;;;;9.83;6.20;;;12.70;99.90;;;;;;4872981;29;20203;-61
2022/07/06 05:12:38;;;;;;;7.93;6.27;;;12.80;99.90;;;;;;4872475;29;20202;-61
2022/07/06 05:15:07;;;;;;;15.60;6.30;;;12.90;99.90;;;;;;4872167;29;20201;-61
2022/07/06 05:17:37;;;;;;;10.27;6.37;;;13.00;99.90;;;;;;4876684;29;20572;-61
2022/07/06 05:20:07;;;;;;;8.37;6.83;;;13.20;99.90;;;;;;4874419;29;20662;-62
2022/07/06 05:22:35;;;;;;;8.60;6.53;;;13.40;99.90;;;;;;4874691;29;20277;-61
2022/07/06 05:25:12;;;;;;;9.70;6.40;;;13.60;99.90;;;;;;4873044;29;20347;-61
2022/07/06 05:27:41;;;;;;;14.60;6.60;;;13.80;99.90;;;;;;4873699;29;20654;-61
2022/07/06 05:30:10;;;;;;;8.67;7.20;;;13.90;99.90;;;;;;4874659;29;20203;-61
2022/07/06 05:32:40;;;;;;;9.67;7.07;;;14.10;99.90;;;;;;4873125;29;20243;-61
2022/07/06 05:35:09;;;;;;;10.93;6.67;;;14.30;99.90;;;;;;4869093;29;20904;-61
2022/07/06 05:37:57;;;;;;;9.13;6.90;;;14.30;99.90;;;;;;4867962;29;20210;-61
2022/07/06 05:40:25;;;;;;;8.47;7.10;;;14.40;99.90;;;;;;4867559;29;20295;-61
2022/07/06 05:42:54;;;;;;;9.73;7.20;;;14.40;99.90;;;;;;4868961;29;20211;-61
2022/07/06 05:45:23;;;;;;;15.53;7.50;;;14.50;99.90;;;;;;4873883;29;20313;-61
2022/07/06 05:50:38;;;;;;;10.20;7.60;;;14.50;99.90;;;;;;4872508;29;20199;-61
2022/07/06 05:53:07;;;;;;;9.73;6.93;;;14.60;99.90;;;;;;4872921;29;20210;-61
2022/07/06 05:55:46;;;;;;;13.30;7.80;;;14.70;99.90;;;;;;4868172;29;20199;-61
2022/07/06 05:58:15;;;;;;;11.67;7.37;;;14.70;99.90;;;;;;4867790;29;20830;-61
2022/07/06 06:00:43;;;;;;;8.50;6.40;;;14.80;99.90;;;;;;4872715;29;20305;-61
2022/07/06 06:03:13;;;;;;;10.07;6.97;;;15.10;99.90;;;;;;4872005;29;20195;-61
2022/07/06 06:05:41;;;;;;;9.97;6.27;;;15.30;99.90;;;;;;4873458;29;20227;-61
2022/07/06 06:08:10;;;;;;;12.73;6.90;;;15.70;99.90;;;;;;4888790;29;20204;-61
2022/07/06 06:10:38;;;;;;;8.80;6.40;;;16.00;99.90;;;;;;4871407;29;20291;-62
2022/07/06 06:13:07;;;;;;;10.13;6.73;;;16.20;99.90;;;;;;4872579;29;20219;-61
2022/07/06 06:15:35;;;;;;;9.33;6.67;;;16.40;99.90;;;;;;4875077;29;20543;-62
2022/07/06 06:18:04;;;;;;;15.93;6.67;;;16.60;99.90;;;;;;4870845;29;20294;-62
2022/07/06 06:20:34;;;;;;;19.23;8.13;;;16.90;99.90;;;;;;4873554;29;20707;-62
2022/07/06 06:23:04;;;;;;;11.20;5.97;;;17.00;99.90;;;;;;4870190;29;20293;-62
2022/07/06 06:25:34;;;;;;;14.13;6.67;;;17.00;99.90;;;;;;4872931;29;20227;-62
2022/07/06 06:28:04;;;;;;;12.57;7.10;;;17.10;99.90;;;;;;4868499;29;20845;-62
2022/07/06 06:30:32;;;;;;;7.10;5.97;;;17.30;99.90;;;;;;4863948;29;20662;-62
2022/07/06 06:33:12;;;;;;;13.83;6.33;;;17.60;99.90;;;;;;4872041;29;20274;-62
2022/07/06 06:35:45;;;;;;;15.90;6.30;;;17.80;99.90;;;;;;4869818;29;20242;-62
2022/07/06 06:38:15;;;;;;;7.97;5.87;;;18.10;99.90;;;;;;4873270;29;20254;-62
2022/07/06 06:40:44;;;;;;;8.83;5.93;;;18.10;99.90;;;;;;4874951;29;20202;-62
2022/07/06 06:43:12;;;;;;;10.77;5.63;;;18.30;99.90;;;;;;4869977;29;20238;-62
2022/07/06 06:45:41;;;;;;;7.20;5.20;;;18.40;99.90;;;;;;4870906;29;20223;-62
2022/07/06 06:48:10;;;;;;;7.00;5.30;;;18.40;99.90;;;;;;4866409;29;20195;-62
2022/07/06 06:50:46;;;;;;;6.17;5.20;;;18.40;99.90;;;;;;4861311;29;20198;-61
2022/07/06 06:53:14;;;;;;;9.00;5.73;;;18.50;99.90;;;;;;4876067;29;20205;-62
2022/07/06 06:55:43;;;;;;;6.20;5.60;;;18.50;99.90;;;;;;4871983;29;20286;-62
2022/07/06 06:58:11;;;;;;;8.47;4.60;;;18.70;99.90;;;;;;4871181;29;20282;-62
2022/07/06 07:00:39;;;;;;;11.70;5.10;;;18.80;99.90;;;;;;4869121;29;20213;-62
2022/07/06 07:03:07;;;;;;;5.43;4.90;;;19.00;99.90;;;;;;4881206;29;20289;-62
2022/07/06 07:05:36;;;;;;;6.10;5.50;;;19.10;99.90;;;;;;4868923;29;20225;-61
2022/07/06 07:08:06;;;;;;;5.60;5.07;;;18.90;99.90;;;;;;4871514;29;20205;-62
2022/07/06 07:10:34;;;;;;;7.33;5.10;;;18.80;99.90;;;;;;4870800;29;20211;-62
2022/07/06 07:13:03;;;;;;;8.17;5.37;;;18.80;99.90;;;;;;4870763;29;20294;-62
2022/07/06 07:15:32;;;;;;;7.17;5.70;;;18.80;99.90;;;;;;4868674;29;20273;-62
2022/07/06 07:18:02;;;;;;;5.33;4.83;;;19.10;99.90;;;;;;4864944;29;20914;-61
2022/07/06 07:20:33;;;;;;;5.37;4.87;;;19.30;99.90;;;;;;4874374;29;20231;-62
2022/07/06 07:23:02;;;;;;;4.37;4.07;;;19.50;99.90;;;;;;4875337;29;20358;-62
2022/07/06 07:25:31;;;;;;;3.70;3.40;;;19.60;99.90;;;;;;4886706;29;20598;-62
2022/07/06 07:27:59;;;;;;;6.53;3.97;;;19.90;99.90;;;;;;4877115;29;20285;-62
2022/07/06 07:30:28;;;;;;;4.83;4.43;;;20.00;99.90;;;;;;4873264;29;20314;-62
2022/07/06 07:32:56;;;;;;;4.10;3.67;;;20.60;99.90;;;;;;4871701;29;20554;-62
2022/07/06 07:35:24;;;;;;;6.97;3.43;;;20.90;99.90;;;;;;4872027;29;20217;-63
2022/07/06 07:37:53;;;;;;;5.97;4.03;;;21.40;99.90;;;;;;4867681;29;20230;-63
2022/07/06 07:40:22;;;;;;;5.27;4.03;;;22.10;99.90;;;;;;4873519;29;20226;-63
2022/07/06 07:42:52;;;;;;;3.83;3.23;;;22.80;99.90;;;;;;4869859;29;20223;-63
2022/07/06 07:45:20;;;;;;;5.13;3.33;;;23.30;99.90;;;;;;4872688;29;20223;-63
2022/07/06 07:47:48;;;;;;;5.45;3.70;;;23.40;99.90;;;;;;4878756;29;20231;-63
2022/07/06 07:50:17;;;;;;;6.43;3.50;;;23.20;99.90;;;;;;4874314;29;20279;-63
2022/07/06 07:52:46;;;;;;;5.82;3.15;;;23.20;99.90;;;;;;4875605;29;20195;-62
2022/07/06 07:55:14;;;;;;;8.45;3.58;;;23.20;99.90;;;;;;4869515;29;20214;-63
2022/07/06 07:58:04;;;;;;;3.92;3.10;;;23.30;99.90;;;;;;4875284;29;20207;-62
2022/07/06 08:00:33;;;;;;;4.22;3.28;;;23.50;99.90;;;;;;4875126;29;20271;-63
2022/07/06 08:03:02;;;;;;;4.13;3.13;;;23.90;99.90;;;;;;4869869;29;20212;-62
2022/07/06 08:05:30;;;;;;;6.53;2.83;;;24.40;99.90;;;;;;4873542;29;20216;-62
2022/07/06 08:07:58;;;;;;;7.95;3.60;;;24.90;99.90;;;;;;4874940;29;20821;-63
2022/07/06 08:10:27;;;;;;;5.65;3.53;;;25.20;99.90;;;;;;4873433;29;20209;-63
2022/07/06 08:12:55;;;;;;;3.25;2.95;;;25.20;99.90;;;;;;4875797;29;20211;-63
2022/07/06 08:15:25;;;;;;;4.60;3.30;;;25.50;99.90;;;;;;4869387;29;20291;-63
2022/07/06 08:17:53;;;;;;;3.83;3.20;;;26.20;99.90;;;;;;4873537;29;20204;-62
2022/07/06 08:20:21;;;;;;;3.92;3.08;;;26.30;99.90;;;;;;4871023;29;20338;-63
2022/07/06 08:22:50;;;;;;;6.05;3.00;;;26.60;99.90;;;;;;4874777;29;20264;-63
2022/07/06 08:25:18;;;;;;;4.20;2.90;;;26.50;99.90;;;;;;4875552;29;20293;-63
2022/07/06 08:27:46;;;;;;;5.82;2.90;;;26.00;99.90;;;;;;4874971;29;20203;-62
2022/07/06 08:30:15;;;;;;;5.30;3.08;;;24.80;99.90;;;;;;4868646;29;20201;-62
2022/07/06 08:32:45;;;;;;;4.05;3.10;;;23.80;99.90;;;;;;4873687;29;20707;-62
2022/07/06 08:35:34;;;;;;;4.27;3.03;;;23.20;99.90;;;;;;4862837;29;20230;-62
2022/07/06 08:38:02;;;;;;;4.83;3.03;;;22.80;99.90;;;;;;4872747;29;20676;-62
2022/07/06 08:40:34;;;;;;;4.80;3.03;;;22.50;99.90;;;;;;4862819;29;20674;-62
2022/07/06 08:43:06;;;;;;;4.73;3.07;;;22.50;99.90;;;;;;4874744;29;20568;-62
2022/07/06 08:45:36;;;;;;;8.43;3.50;;;23.30;99.90;;;;;;4872838;29;20572;-62
2022/07/06 08:48:08;;;;;;;4.80;2.70;;;24.10;99.90;;;;;;4874898;29;20211;-63
2022/07/06 08:50:36;;;;;;;6.10;2.97;;;23.90;99.90;;;;;;4876017;29;20246;-62
2022/07/06 08:53:07;;;;;;;6.93;3.20;;;23.90;99.90;;;;;;4860545;29;20264;-62
2022/07/06 08:55:36;;;;;;;3.17;2.90;;;23.70;99.90;;;;;;4868582;29;20600;-62
2022/07/06 08:58:06;;;;;;;8.27;3.47;;;23.70;99.90;;;;;;4871772;29;20560;-62
2022/07/06 09:00:35;;;;;;;5.47;3.07;;;23.70;99.90;;;;;;4868165;29;20262;-62
2022/07/06 09:03:06;;;;;;;3.03;2.80;;;23.20;99.90;;;;;;4868595;29;20225;-62
2022/07/06 09:05:37;;;;;;;8.73;3.20;;;22.80;99.90;;;;;;4874898;29;20217;-62
2022/07/06 09:08:06;;;;;;;7.57;3.27;;;22.30;99.90;;;;;;4871877;29;20201;-62
2022/07/06 09:10:35;;;;;;;6.97;3.33;;;22.00;99.90;;;;;;4873554;29;20214;-61
2022/07/06 09:13:05;;;;;;;8.57;3.13;;;22.00;99.90;;;;;;4875307;29;20677;-61
2022/07/06 09:15:35;;;;;;;4.97;3.07;;;22.00;99.90;;;;;;4873625;29;20251;-61
2022/07/06 09:18:07;;;;;;;3.83;3.20;;;22.00;99.90;;;;;;4872847;29;20579;-61
2022/07/06 09:20:36;;;;;;;5.67;2.93;;;22.00;99.90;;;;;;4871985;29;20279;-61
2022/07/06 09:23:06;;;;;;;7.87;2.60;;;21.90;99.90;;;;;;4871186;29;20568;-61
2022/07/06 09:25:48;;;;;;;3.17;2.77;;;21.80;99.90;;;;;;4873513;29;20231;-62
2022/07/06 09:28:17;;;;;;;6.60;3.50;;;21.80;99.90;;;;;;4875139;29;20721;-62
2022/07/06 09:30:46;;;;;;;6.40;3.30;;;21.60;99.90;;;;;;4875542;29;20207;-61
2022/07/06 09:33:20;;;;;;;5.40;2.50;;;21.60;99.90;;;;;;4869301;29;20209;-61
2022/07/06 09:35:49;;;;;;;3.70;2.70;;;21.80;99.90;;;;;;4870714;29;20236;-62
2022/07/06 09:38:21;;;;;;;5.67;3.07;;;21.80;99.90;;;;;;4874590;29;20291;-61
2022/07/06 09:40:50;;;;;;;4.23;2.63;;;21.80;99.90;;;;;;4867861;29;20756;-62
2022/07/06 09:43:21;;;;;;;7.70;2.83;;;22.00;99.90;;;;;;4871431;29;20572;-61
2022/07/06 09:45:52;;;;;;;4.93;2.73;;;22.40;99.90;;;;;;4873836;29;20245;-62
2022/07/06 09:48:24;;;;;;;5.87;3.20;;;22.50;99.90;;;;;;4872361;29;20657;-62
2022/07/06 09:50:56;;;;;;;4.37;3.47;;;22.60;99.90;;;;;;4880074;29;20209;-62
2022/07/06 09:53:26;;;;;;;3.90;2.90;;;22.90;99.90;;;;;;4873344;29;20195;-62
2022/07/06 09:55:58;;;;;;;4.47;2.47;;;23.10;99.90;;;;;;4875705;29;20325;-62
2022/07/06 09:58:27;;;;;;;3.57;2.70;;;23.20;99.90;;;;;;4870179;29;20214;-62
2022/07/06 10:01:27;;;;;;;8.47;3.00;;;23.40;99.90;;;;;;4867131;29;20227;-62
2022/07/06 10:03:58;;;;;;;4.13;2.80;;;23.30;99.90;;;;;;4872405;29;20674;-62
2022/07/06 10:06:27;;;;;;;6.67;2.60;;;23.10;99.90;;;;;;4870331;29;20213;-62
2022/07/06 10:09:00;;;;;;;2.90;2.80;;;23.10;99.90;;;;;;4872774;29;20294;-62
2022/07/06 10:11:30;;;;;;;6.47;3.20;;;23.20;99.90;;;;;;4872568;29;20198;-62
2022/07/06 10:14:01;;;;;;;6.43;2.80;;;23.20;99.90;;;;;;4869517;29;20290;-62
2022/07/06 10:16:31;;;;;;;5.80;3.00;;;23.20;99.90;;;;;;4874844;29;20232;-62
2022/07/06 10:19:04;;;;;;;6.50;2.70;;;23.40;99.90;;;;;;4876095;29;20235;-62
2022/07/06 10:21:34;;;;;;;4.40;2.77;;;23.80;99.90;;;;;;4867818;29;20241;-62
2022/07/06 10:24:04;;;;;;;2.63;2.43;;;24.00;99.90;;;;;;4871458;29;20656;-62
2022/07/06 10:26:34;;;;;;;2.37;2.17;;;24.00;99.90;;;;;;4871050;29;20226;-62
2022/07/06 10:29:04;;;;;;;4.80;2.30;;;24.20;99.90;;;;;;4869311;29;20264;-62
2022/07/06 10:31:34;;;;;;;4.30;2.50;;;24.20;99.90;;;;;;4871869;29;20196;-62
2022/07/06 10:34:07;;;;;;;2.90;2.63;;;24.20;99.90;;;;;;4875924;29;20230;-62
2022/07/06 10:36:39;;;;;;;2.77;2.47;;;24.30;99.90;;;;;;4860448;29;20330;-62
2022/07/06 10:41:54;;;;;;;5.53;2.57;;;25.20;99.90;;;;;;4870382;29;20239;-62
2022/07/06 10:44:25;;;;;;;2.50;2.30;;;24.90;99.90;;;;;;4873321;29;20215;-62
2022/07/06 10:46:55;;;;;;;4.33;2.90;;;24.60;99.90;;;;;;4871321;29;20238;-62
2022/07/06 10:49:27;;;;;;;2.90;2.70;;;24.20;99.90;;;;;;4870839;29;20204;-62
2022/07/06 10:52:17;;;;;;;4.23;2.67;;;23.70;99.90;;;;;;4886122;29;20218;-62
2022/07/06 10:54:47;;;;;;;7.63;3.40;;;23.40;99.90;;;;;;4871856;29;20317;-62
2022/07/06 10:57:17;;;;;;;4.37;2.80;;;23.30;99.90;;;;;;4866345;29;20656;-62
2022/07/06 11:00:01;;;;;;;3.40;2.57;;;23.30;99.90;;;;;;4872016;29;20207;-62
2022/07/06 11:02:39;;;;;;;5.07;2.57;;;23.70;99.90;;;;;;4874229;29;20279;-62
2022/07/06 11:05:12;;;;;;;2.87;2.60;;;24.40;99.90;;;;;;4887573;29;20202;-62
2022/07/06 11:07:51;;;;;;;4.73;2.37;;;25.00;99.90;;;;;;4873896;29;20694;-62
2022/07/06 11:10:23;;;;;;;5.05;2.45;;;25.30;99.90;;;;;;4876643;29;20204;-62
2022/07/06 11:12:59;;;;;;;5.00;2.93;;;25.20;99.90;;;;;;4866271;29;20203;-62
2022/07/06 11:15:49;;;;;;;2.70;2.50;;;24.90;99.90;;;;;;4869636;29;20210;-62
2022/07/06 11:18:20;;;;;;;7.50;2.87;;;24.60;99.90;;;;;;4871132;29;20587;-62
2022/07/06 11:21:17;;;;;;;2.50;2.30;;;24.20;99.90;;;;;;4873958;29;20263;-62
2022/07/06 11:23:48;;;;;;;2.53;2.17;;;24.70;99.90;;;;;;4872511;29;20199;-62
2022/07/06 11:26:17;;;;;;;4.20;2.50;;;25.30;99.90;;;;;;4874062;29;20232;-62
2022/07/06 11:28:48;;;;;;;3.43;2.40;;;25.80;99.90;;;;;;4870572;29;20218;-62
2022/07/06 11:31:17;;;;;;;2.90;1.83;;;26.30;99.90;;;;;;4875062;29;20212;-62
2022/07/06 11:33:49;;;;;;;5.55;2.60;;;26.70;99.90;;;;;;4870438;29;20568;-62
2022/07/06 11:36:21;;;;;;;5.60;2.83;;;26.50;99.90;;;;;;4874985;29;20212;-62
2022/07/06 11:38:51;;;;;;;3.03;2.67;;;26.00;99.90;;;;;;4866988;29;20291;-62
2022/07/06 11:41:20;;;;;;;2.73;2.53;;;25.30;99.90;;;;;;4864220;29;20210;-62
2022/07/06 11:43:51;;;;;;;7.50;2.77;;;24.70;99.90;;;;;;4874794;29;20612;-62
2022/07/06 11:46:21;;;;;;;2.87;2.30;;;24.20;99.90;;;;;;4871939;29;20648;-61
2022/07/06 11:48:50;;;;;;;6.27;2.93;;;24.00;99.90;;;;;;4874473;29;20227;-61
2022/07/06 11:51:20;;;;;;;3.70;2.67;;;23.70;99.90;;;;;;4875016;29;20211;-61
2022/07/06 11:53:50;;;;;;;5.63;2.90;;;23.70;99.90;;;;;;4883688;29;20215;-61
2022/07/06 11:56:25;;;;;;;8.97;3.70;;;23.60;99.90;;;;;;4875480;29;20573;-61
2022/07/06 11:58:55;;;;;;;10.87;3.03;;;23.40;99.90;;;;;;4873385;29;20239;-61
2022/07/06 12:01:25;;;;;;;4.83;2.53;;;23.50;99.90;;;;;;4875250;29;20667;-62
2022/07/06 12:03:54;;;;;;;5.63;2.77;;;24.00;99.90;;;;;;4890081;29;20672;-62
2022/07/06 12:06:26;;;;;;;3.40;2.90;;;24.50;99.90;;;;;;4873003;29;20244;-61
2022/07/06 12:08:56;;;;;;;4.67;3.00;;;24.90;99.90;;;;;;4868064;29;20253;-62
2022/07/06 12:11:26;;;;;;;5.53;2.50;;;25.20;99.90;;;;;;4874820;29;20235;-62
2022/07/06 12:13:57;;;;;;;4.97;3.20;;;25.60;99.90;;;;;;4864120;29;20209;-61
2022/07/06 12:16:31;;;;;;;5.30;2.47;;;26.00;99.90;;;;;;4872831;29;20203;-61
2022/07/06 12:18:59;;;;;;;3.27;2.40;;;25.50;99.90;;;;;;4874286;29;20195;-62
2022/07/06 12:21:36;;;;;;;3.90;2.73;;;25.20;99.90;;;;;;4868370;29;20248;-61
2022/07/06 12:24:08;;;;;;;4.57;2.20;;;24.90;99.90;;;;;;4873809;29;20225;-62
2022/07/06 12:26:40;;;;;;;2.10;1.90;;;24.70;99.90;;;;;;4876639;29;20214;-61
2022/07/06 12:29:13;;;;;;;3.17;2.57;;;24.80;99.90;;;;;;4871169;29;21015;-61
2022/07/06 12:31:43;;;;;;;3.83;2.17;;;25.00;99.90;;;;;;4876827;29;20201;-61
2022/07/06 12:34:17;;;;;;;3.57;2.63;;;24.90;99.90;;;;;;4874807;29;20222;-61
2022/07/06 12:36:49;;;;;;;2.57;2.37;;;24.70;99.90;;;;;;4877677;29;20198;-61
2022/07/06 12:39:21;;;;;;;4.50;2.57;;;24.70;99.90;;;;;;4872877;29;20206;-61
2022/07/06 12:41:52;;;;;;;4.77;2.83;;;24.80;99.90;;;;;;4872390;29;20297;-61
2022/07/06 12:44:23;;;;;;;4.97;2.50;;;24.80;99.90;;;;;;4874850;29;20197;-61
2022/07/06 12:47:03;;;;;;;2.90;2.60;;;24.80;99.90;;;;;;4870847;29;20699;-61
2022/07/06 12:49:33;;;;;;;2.47;2.27;;;24.60;99.90;;;;;;4873909;29;20646;-61
2022/07/06 12:52:10;;;;;;;3.83;2.40;;;24.50;99.90;;;;;;4876809;29;20284;-61
2022/07/06 12:54:43;;;;;;;2.57;2.37;;;24.30;99.90;;;;;;4870871;29;20209;-62
2022/07/06 12:57:15;;;;;;;5.10;2.27;;;24.50;99.90;;;;;;4871046;29;20231;-61
2022/07/06 12:59:46;;;;;;;5.33;2.80;;;24.90;99.90;;;;;;4874911;29;20202;-61
2022/07/06 13:02:24;;;;;;;4.63;2.33;;;25.20;99.90;;;;;;4870510;29;20206;-61
2022/07/06 13:05:15;;;;;;;2.57;2.20;;;25.00;99.90;;;;;;4858866;29;20209;-61
2022/07/06 13:07:48;;;;;;;8.37;2.30;;;25.10;99.90;;;;;;4872124;29;20260;-61